createdAt,value
2022-11-17T00:01:08.145Z,3.97
2022-11-17T00:03:36.083Z,2.83
2022-11-17T00:06:07.059Z,3.47
2022-11-17T00:08:33.942Z,3.60
2022-11-17T00:11:01.861Z,3.80
2022-11-17T00:13:53.286Z,2.43
2022-11-17T00:16:21.701Z,3.07
2022-11-17T00:19:07.678Z,2.60
2022-11-17T00:21:34.999Z,4.27
2022-11-17T00:24:02.411Z,2.43
2022-11-17T00:26:34.602Z,3.17
2022-11-17T00:29:07.317Z,3.20
2022-11-17T00:31:53.287Z,3.87
2022-11-17T00:34:45.420Z,4.97
2022-11-17T00:37:13.403Z,2.73
2022-11-17T00:39:40.230Z,3.50
2022-11-17T00:42:07.095Z,2.93
2022-11-17T00:44:34.016Z,3.50
2022-11-17T00:47:00.953Z,3.27
2022-11-17T00:49:28.052Z,3.57
2022-11-17T00:51:56.020Z,3.00
2022-11-17T00:54:23.422Z,2.80
2022-11-17T00:56:50.348Z,3.00
2022-11-17T00:59:17.661Z,6.90
2022-11-17T01:01:44.889Z,3.60
2022-11-17T01:04:14.724Z,3.50
2022-11-17T01:06:43.933Z,6.50
2022-11-17T01:09:24.376Z,3.13
2022-11-17T01:11:52.926Z,4.03
2022-11-17T01:14:26.989Z,3.90
2022-11-17T01:16:54.776Z,3.17
2022-11-17T01:19:22.913Z,3.77
2022-11-17T01:21:50.051Z,2.90
2022-11-17T01:24:17.391Z,4.70
2022-11-17T01:26:46.491Z,7.43
2022-11-17T01:29:17.184Z,3.00
2022-11-17T01:31:45.600Z,4.97
2022-11-17T01:34:13.093Z,4.13
2022-11-17T01:37:01.060Z,3.90
2022-11-17T01:39:29.832Z,6.83
2022-11-17T01:41:57.796Z,4.07
2022-11-17T01:44:48.194Z,3.63
2022-11-17T01:47:23.976Z,4.03
2022-11-17T01:49:56.232Z,7.03
2022-11-17T01:52:24.658Z,4.57
2022-11-17T01:54:54.193Z,6.07
2022-11-17T01:57:30.724Z,5.83
2022-11-17T02:00:07.677Z,5.93
2022-11-17T02:02:35.787Z,4.97
2022-11-17T02:05:26.401Z,6.13
2022-11-17T02:07:55.402Z,5.23
2022-11-17T02:10:22.445Z,4.70
2022-11-17T02:12:50.247Z,4.67
2022-11-17T02:15:17.247Z,8.03
2022-11-17T02:17:44.569Z,5.80
2022-11-17T02:20:30.866Z,11.07
2022-11-17T02:23:12.356Z,8.23
2022-11-17T02:25:47.175Z,9.83
2022-11-17T02:28:30.078Z,11.20
2022-11-17T02:31:14.755Z,9.17
2022-11-17T02:33:54.561Z,6.60
2022-11-17T02:36:41.370Z,9.17
2022-11-17T02:39:47.367Z,9.27
2022-11-17T02:43:03.460Z,17.67
2022-11-17T02:45:42.082Z,13.00
2022-11-17T02:48:16.441Z,9.73
2022-11-17T02:50:46.753Z,9.73
2022-11-17T02:53:17.988Z,12.60
2022-11-17T02:55:53.072Z,12.63
2022-11-17T03:01:28.057Z,11.07
2022-11-17T03:04:27.193Z,11.60
2022-11-17T03:07:32.162Z,11.97
2022-11-17T03:10:22.364Z,11.80
2022-11-17T03:13:00.648Z,12.27
2022-11-17T03:15:48.770Z,13.77
2022-11-17T03:18:34.191Z,13.27
2022-11-17T03:21:22.639Z,14.33
2022-11-17T03:23:52.422Z,12.37
2022-11-17T03:26:34.740Z,14.53
2022-11-17T03:29:03.872Z,15.70
2022-11-17T03:31:33.861Z,15.93
2022-11-17T03:34:06.504Z,16.53
2022-11-17T03:36:39.709Z,15.93
2022-11-17T03:39:27.104Z,14.70
2022-11-17T03:42:00.117Z,17.73
2022-11-17T03:44:29.519Z,15.50
2022-11-17T03:47:02.498Z,13.97
2022-11-17T03:49:51.888Z,16.90
2022-11-17T03:52:20.008Z,17.30
2022-11-17T03:54:47.427Z,17.37
2022-11-17T04:00:19.319Z,20.03
2022-11-17T04:02:48.824Z,17.87
2022-11-17T04:05:17.902Z,17.73
2022-11-17T04:07:46.889Z,18.00
2022-11-17T04:10:19.294Z,15.20
2022-11-17T04:13:09.305Z,17.03
2022-11-17T04:15:54.742Z,17.67
2022-11-17T04:18:22.648Z,15.80
2022-11-17T04:20:53.946Z,17.93
2022-11-17T04:23:21.222Z,18.87
2022-11-17T04:26:22.143Z,17.33
2022-11-17T04:28:50.684Z,18.90
2022-11-17T04:31:20.259Z,13.87
2022-11-17T04:33:52.358Z,17.57
2022-11-17T04:36:23.937Z,16.63
2022-11-17T04:39:16.273Z,16.17
2022-11-17T04:41:57.522Z,15.27
2022-11-17T04:44:28.023Z,16.33
2022-11-17T04:46:56.285Z,13.93
2022-11-17T04:49:24.838Z,12.93
2022-11-17T04:51:53.054Z,14.17
2022-11-17T04:54:23.734Z,13.73
2022-11-17T04:56:51.699Z,13.20
2022-11-17T04:59:18.533Z,11.80
2022-11-17T05:01:48.271Z,15.53
2022-11-17T05:04:35.685Z,11.10
2022-11-17T05:07:03.150Z,13.67
2022-11-17T05:09:29.964Z,13.93
2022-11-17T05:12:17.372Z,13.60
2022-11-17T05:14:44.320Z,16.30
2022-11-17T05:17:12.037Z,13.27
2022-11-17T05:19:41.843Z,15.33
2022-11-17T05:22:38.902Z,18.43
2022-11-17T05:25:06.443Z,15.17
2022-11-17T05:27:34.846Z,13.27
2022-11-17T05:30:29.520Z,15.77
2022-11-17T05:32:58.947Z,14.27
2022-11-17T05:35:25.758Z,14.00
2022-11-17T05:37:52.673Z,14.87
2022-11-17T05:40:19.616Z,13.53
2022-11-17T05:42:47.399Z,16.40
2022-11-17T05:45:14.333Z,20.27
2022-11-17T05:47:41.319Z,16.33
2022-11-17T05:50:08.459Z,14.80
2022-11-17T05:52:35.323Z,18.67
2022-11-17T05:55:02.351Z,15.20
2022-11-17T05:57:32.739Z,13.67
2022-11-17T06:00:04.750Z,17.00
2022-11-17T06:02:40.153Z,12.33
2022-11-17T06:05:08.315Z,11.13
2022-11-17T06:07:37.267Z,13.60
2022-11-17T06:10:04.986Z,12.53
2022-11-17T06:12:32.152Z,10.50
2022-11-17T06:14:59.143Z,8.50
2022-11-17T06:17:35.194Z,10.13
2022-11-17T06:20:24.719Z,10.00
2022-11-17T06:22:53.196Z,8.47
2022-11-17T06:25:21.365Z,8.47
2022-11-17T06:27:50.905Z,10.27
2022-11-17T06:30:18.290Z,9.27
2022-11-17T06:32:45.787Z,9.70
2022-11-17T06:35:14.636Z,9.30
2022-11-17T06:37:41.572Z,10.23
2022-11-17T06:40:10.047Z,12.60
2022-11-17T06:45:48.683Z,10.63
2022-11-17T06:48:17.675Z,13.30
2022-11-17T06:50:44.531Z,13.53
2022-11-17T06:53:12.436Z,10.73
2022-11-17T06:55:39.536Z,15.47
2022-11-17T06:58:12.106Z,16.27
2022-11-17T07:00:39.183Z,14.53
2022-11-17T07:03:09.167Z,15.13
2022-11-17T07:05:39.964Z,14.60
2022-11-17T07:08:09.184Z,16.33
2022-11-17T07:10:46.542Z,14.67
2022-11-17T07:13:19.641Z,12.93
2022-11-17T07:15:46.503Z,16.87
2022-11-17T07:18:13.380Z,13.73
2022-11-17T07:20:40.309Z,12.07
2022-11-17T07:23:07.174Z,11.60
2022-11-17T07:25:34.110Z,17.30
2022-11-17T07:28:01.094Z,7.57
2022-11-17T07:30:28.083Z,15.67
2022-11-17T07:32:55.151Z,13.87
2022-11-17T07:35:22.015Z,11.13
2022-11-17T07:37:48.841Z,11.50
2022-11-17T07:40:16.026Z,10.73
2022-11-17T07:42:47.690Z,10.37
2022-11-17T07:45:14.784Z,11.27
2022-11-17T07:47:41.763Z,9.30
2022-11-17T07:50:09.266Z,12.97
2022-11-17T07:52:41.284Z,8.70
2022-11-17T07:55:08.558Z,11.03
2022-11-17T07:57:35.743Z,10.73
2022-11-17T08:00:02.913Z,9.77
2022-11-17T08:02:29.740Z,12.20
2022-11-17T08:04:57.327Z,9.80
2022-11-17T08:07:24.553Z,12.93
2022-11-17T08:09:51.511Z,8.57
2022-11-17T08:12:19.188Z,15.93
2022-11-17T08:14:46.050Z,8.80
2022-11-17T08:17:12.843Z,10.00
2022-11-17T08:19:39.641Z,13.47
2022-11-17T08:22:06.564Z,14.20
2022-11-17T08:24:33.418Z,8.73
2022-11-17T08:27:00.255Z,10.50
2022-11-17T08:29:27.069Z,14.03
2022-11-17T08:31:53.882Z,11.60
2022-11-17T08:34:20.700Z,11.87
2022-11-17T08:39:39.556Z,9.50
2022-11-17T08:42:06.558Z,8.67
2022-11-17T08:44:33.437Z,11.00
2022-11-17T08:47:00.348Z,10.30
2022-11-17T08:49:27.150Z,9.70
2022-11-17T08:51:54.051Z,11.80
2022-11-17T08:54:20.922Z,10.27
2022-11-17T08:56:48.810Z,10.30
2022-11-17T08:59:15.599Z,9.10
2022-11-17T09:01:42.401Z,11.60
2022-11-17T09:04:09.254Z,9.63
2022-11-17T09:06:36.056Z,8.17
2022-11-17T09:09:03.242Z,9.10
2022-11-17T09:11:30.452Z,9.73
2022-11-17T09:13:57.978Z,9.83
2022-11-17T09:16:25.434Z,11.23
2022-11-17T09:18:59.563Z,7.20
2022-11-17T09:21:27.332Z,9.00
2022-11-17T09:23:54.843Z,7.97
2022-11-17T09:26:22.035Z,8.03
2022-11-17T09:28:49.130Z,11.60
2022-11-17T09:31:19.377Z,9.37
2022-11-17T09:33:46.716Z,9.33
2022-11-17T09:36:16.205Z,11.77
2022-11-17T09:38:43.077Z,10.13
2022-11-17T09:41:15.888Z,11.67
2022-11-17T09:44:02.870Z,10.63
2022-11-17T09:47:08.065Z,9.47
2022-11-17T09:49:41.707Z,10.87
2022-11-17T09:52:43.784Z,9.57
2022-11-17T09:55:34.545Z,14.57
2022-11-17T09:58:15.462Z,7.70
2022-11-17T10:00:47.341Z,10.53
2022-11-17T10:03:21.234Z,8.40
2022-11-17T10:05:49.402Z,8.40
2022-11-17T10:08:20.181Z,7.33
2022-11-17T10:10:52.144Z,14.47
2022-11-17T10:13:30.805Z,9.83
2022-11-17T10:16:04.373Z,7.70
2022-11-17T10:18:38.172Z,9.90
2022-11-17T10:21:06.847Z,10.70
2022-11-17T10:23:41.276Z,8.33
2022-11-17T10:26:14.694Z,8.27
2022-11-17T10:28:42.707Z,8.17
2022-11-17T10:31:19.779Z,13.60
2022-11-17T10:33:50.619Z,10.30
2022-11-17T10:36:20.473Z,11.87
2022-11-17T10:38:50.537Z,7.47
2022-11-17T10:41:27.226Z,7.47
2022-11-17T10:44:02.663Z,8.27
2022-11-17T10:46:35.788Z,8.90
2022-11-17T10:49:24.327Z,10.37
2022-11-17T10:52:04.125Z,10.33
2022-11-17T10:54:31.019Z,9.33
2022-11-17T10:57:00.719Z,8.33
2022-11-17T10:59:49.692Z,9.63
2022-11-17T11:02:49.778Z,7.47
2022-11-17T11:05:18.841Z,8.80
2022-11-17T11:07:45.900Z,10.40
2022-11-17T11:10:21.883Z,8.60
2022-11-17T11:13:15.000Z,9.10
2022-11-17T11:15:42.106Z,7.67
2022-11-17T11:18:14.756Z,9.33
2022-11-17T11:20:41.517Z,10.00
2022-11-17T11:23:18.252Z,7.73
2022-11-17T11:25:49.302Z,10.07
2022-11-17T11:28:16.710Z,11.37
2022-11-17T11:31:08.821Z,8.20
2022-11-17T11:33:50.069Z,7.63
2022-11-17T11:36:41.093Z,13.33
2022-11-17T11:39:35.552Z,9.43
2022-11-17T11:42:42.688Z,14.17
2022-11-17T11:45:31.118Z,9.77
2022-11-17T11:48:20.243Z,10.20
2022-11-17T11:51:37.164Z,8.53
2022-11-17T11:54:13.823Z,11.80
2022-11-17T11:56:46.149Z,10.03
2022-11-17T11:59:18.921Z,15.40
2022-11-17T12:02:03.468Z,10.63
2022-11-17T12:04:48.946Z,11.80
2022-11-17T12:07:26.425Z,10.77
2022-11-17T12:09:53.122Z,10.53
2022-11-17T12:12:29.623Z,11.97
2022-11-17T12:15:19.712Z,13.77
2022-11-17T12:18:18.798Z,12.63
2022-11-17T12:20:57.973Z,14.70
2022-11-17T12:23:48.284Z,11.23
2022-11-17T12:26:30.027Z,14.53
2022-11-17T12:29:21.485Z,14.50
2022-11-17T12:31:50.385Z,18.63
2022-11-17T12:34:24.643Z,11.37
2022-11-17T12:37:26.561Z,14.43
2022-11-17T12:39:59.411Z,8.60
2022-11-17T12:42:27.919Z,11.53
2022-11-17T12:45:11.463Z,10.67
2022-11-17T12:48:04.801Z,9.27
2022-11-17T12:50:34.418Z,18.20
2022-11-17T12:53:15.097Z,11.10
2022-11-17T12:55:57.003Z,9.80
2022-11-17T12:58:48.690Z,8.60
2022-11-17T13:01:15.436Z,13.93
2022-11-17T13:04:30.422Z,10.83
2022-11-17T13:07:17.160Z,12.93
2022-11-17T13:09:44.221Z,11.27
2022-11-17T13:12:11.406Z,14.77
2022-11-17T13:14:54.281Z,13.10
2022-11-17T13:17:27.383Z,10.10
2022-11-17T13:20:13.032Z,10.47
2022-11-17T13:22:42.071Z,8.93
2022-11-17T13:25:22.880Z,8.80
2022-11-17T13:28:19.057Z,8.73
2022-11-17T13:30:46.937Z,12.57
2022-11-17T13:33:22.064Z,9.43
2022-11-17T13:35:48.961Z,9.80
2022-11-17T13:38:23.673Z,9.53
2022-11-17T13:40:52.493Z,9.97
2022-11-17T13:43:25.242Z,10.00
2022-11-17T13:45:55.013Z,8.07
2022-11-17T13:48:33.910Z,8.87
2022-11-17T13:51:35.123Z,9.60
2022-11-17T13:54:04.659Z,10.07
2022-11-17T13:56:39.323Z,13.83
2022-11-17T13:59:23.361Z,11.37
2022-11-17T14:01:51.500Z,12.83
2022-11-17T14:04:24.084Z,12.03
2022-11-17T14:07:01.029Z,12.50
2022-11-17T14:09:30.874Z,9.90
2022-11-17T14:11:58.675Z,11.90
2022-11-17T14:14:34.646Z,8.30
2022-11-17T14:17:13.609Z,10.53
2022-11-17T14:19:40.480Z,9.77
2022-11-17T14:22:12.284Z,12.30
2022-11-17T14:24:42.902Z,10.20
2022-11-17T14:27:34.690Z,12.23
2022-11-17T14:30:01.454Z,11.00
2022-11-17T14:32:28.398Z,21.37
2022-11-17T14:34:55.208Z,22.80
2022-11-17T14:37:21.987Z,11.77
2022-11-17T14:39:48.784Z,11.23
2022-11-17T14:42:15.500Z,12.03
2022-11-17T14:44:42.357Z,19.83
2022-11-17T14:47:09.124Z,13.50
2022-11-17T14:49:35.907Z,10.50
2022-11-17T14:52:02.989Z,11.90
2022-11-17T14:54:29.762Z,10.77
2022-11-17T14:56:56.526Z,10.97
2022-11-17T14:59:25.293Z,11.13
2022-11-17T15:01:52.043Z,15.30
2022-11-17T15:04:48.912Z,17.17
2022-11-17T15:07:05.975Z,11.70
2022-11-17T15:09:33.205Z,13.57
2022-11-17T15:12:00.501Z,15.50
2022-11-17T15:14:27.330Z,12.37
2022-11-17T15:16:54.063Z,15.47
2022-11-17T15:19:20.822Z,16.50
2022-11-17T15:21:47.593Z,13.40
2022-11-17T15:24:14.671Z,15.83
2022-11-17T15:26:41.709Z,13.40
2022-11-17T15:29:15.231Z,16.03
2022-11-17T15:31:42.784Z,12.00
2022-11-17T15:34:19.903Z,13.17
2022-11-17T15:36:47.508Z,12.77
2022-11-17T15:39:14.783Z,14.73
2022-11-17T15:41:41.862Z,16.17
2022-11-17T15:44:08.893Z,10.40
2022-11-17T15:46:35.897Z,16.07
2022-11-17T15:49:03.685Z,12.77
2022-11-17T15:51:30.423Z,15.13
2022-11-17T15:53:59.250Z,15.60
2022-11-17T15:56:29.612Z,15.97
2022-11-17T15:59:03.277Z,14.80
2022-11-17T16:01:35.346Z,14.33
2022-11-17T16:04:04.896Z,15.90
2022-11-17T16:06:33.625Z,12.83
2022-11-17T16:09:00.445Z,10.43
2022-11-17T16:11:28.090Z,15.10
2022-11-17T16:13:56.127Z,13.30
2022-11-17T16:16:24.924Z,13.07
2022-11-17T16:18:51.990Z,15.10
2022-11-17T16:21:18.999Z,18.10
2022-11-17T16:23:47.822Z,15.53
2022-11-17T16:26:16.932Z,16.07
2022-11-17T16:28:44.266Z,14.80
2022-11-17T16:31:22.143Z,15.00
2022-11-17T16:33:57.153Z,14.87
2022-11-17T16:36:28.943Z,13.97
2022-11-17T16:39:01.268Z,13.93
2022-11-17T16:41:31.744Z,16.33
2022-11-17T16:43:59.300Z,16.60
2022-11-17T16:46:29.213Z,13.93
2022-11-17T16:48:56.944Z,13.13
2022-11-17T16:51:24.704Z,12.67
2022-11-17T16:54:03.046Z,13.30
2022-11-17T16:56:30.697Z,12.13
2022-11-17T16:58:58.759Z,13.00
2022-11-17T17:01:28.590Z,14.30
2022-11-17T17:03:57.127Z,14.50
2022-11-17T17:06:24.387Z,15.93
2022-11-17T17:08:59.468Z,15.93
2022-11-17T17:11:28.784Z,14.80
2022-11-17T17:13:56.741Z,18.57
2022-11-17T17:16:24.257Z,18.00
2022-11-17T17:19:01.831Z,17.47
2022-11-17T17:21:29.640Z,23.43
2022-11-17T17:23:57.337Z,18.13
2022-11-17T17:26:26.797Z,19.10
2022-11-17T17:28:56.414Z,21.57
2022-11-17T17:31:25.432Z,16.13
2022-11-17T17:33:53.145Z,16.87
2022-11-17T17:36:22.818Z,20.33
2022-11-17T17:38:55.499Z,17.43
2022-11-17T17:41:24.979Z,20.07
2022-11-17T17:43:58.207Z,24.63
2022-11-17T17:46:25.672Z,19.93
2022-11-17T17:48:52.855Z,16.60
2022-11-17T17:51:21.535Z,24.83
2022-11-17T17:53:53.798Z,23.20
2022-11-17T17:56:21.877Z,22.33
2022-11-17T17:58:50.645Z,23.90
2022-11-17T18:01:18.743Z,22.10
2022-11-17T18:03:48.141Z,22.40
2022-11-17T18:06:17.429Z,22.83
2022-11-17T18:08:45.624Z,30.10
2022-11-17T18:11:16.969Z,25.13
2022-11-17T18:13:44.876Z,29.93
2022-11-17T18:16:17.348Z,23.57
2022-11-17T18:18:45.674Z,24.93
2022-11-17T18:21:17.706Z,22.43
2022-11-17T18:23:44.750Z,24.30
2022-11-17T18:26:20.537Z,22.60
2022-11-17T18:28:52.928Z,23.20
2022-11-17T18:31:20.925Z,23.60
2022-11-17T18:33:55.824Z,24.60
2022-11-17T18:36:23.356Z,24.83
2022-11-17T18:39:02.400Z,24.30
2022-11-17T18:41:34.572Z,25.73
2022-11-17T18:44:02.341Z,20.77
2022-11-17T18:46:32.363Z,20.77
2022-11-17T18:49:02.084Z,23.37
2022-11-17T18:51:31.500Z,24.80
2022-11-17T18:54:00.333Z,24.63
2022-11-17T18:56:33.109Z,23.80
2022-11-17T18:59:00.191Z,23.93
2022-11-17T19:01:32.605Z,25.07
2022-11-17T19:04:02.689Z,26.20
2022-11-17T19:06:32.160Z,25.10
2022-11-17T19:09:04.486Z,26.60
2022-11-17T19:11:32.839Z,24.30
2022-11-17T19:14:05.305Z,26.57
2022-11-17T19:16:32.997Z,21.83
2022-11-17T19:19:25.297Z,24.80
2022-11-17T19:21:52.345Z,25.67
2022-11-17T19:24:19.145Z,20.83
2022-11-17T19:26:47.397Z,28.80
2022-11-17T19:29:17.471Z,25.83
2022-11-17T19:31:52.435Z,25.33
2022-11-17T19:34:19.344Z,23.40
2022-11-17T19:36:50.451Z,29.73
2022-11-17T19:39:18.088Z,23.83
2022-11-17T19:41:47.863Z,26.37
2022-11-17T19:44:14.868Z,24.00
2022-11-17T19:46:43.303Z,23.73
2022-11-17T19:49:12.033Z,26.63
2022-11-17T19:51:40.329Z,23.93
2022-11-17T19:54:35.528Z,23.47
2022-11-17T19:57:02.326Z,26.00
2022-11-17T19:59:29.132Z,27.07
2022-11-17T20:01:56.054Z,28.60
2022-11-17T20:04:23.157Z,22.67
2022-11-17T20:06:49.982Z,28.07
2022-11-17T20:09:17.019Z,24.40
2022-11-17T20:11:44.071Z,23.73
2022-11-17T20:14:14.529Z,25.13
2022-11-17T20:16:43.430Z,26.13
2022-11-17T20:19:11.191Z,29.47
2022-11-17T20:21:38.330Z,28.73
2022-11-17T20:24:05.152Z,28.20
2022-11-17T20:26:34.045Z,22.07
2022-11-17T20:29:01.223Z,30.10
2022-11-17T20:31:30.664Z,24.17
2022-11-17T20:34:00.446Z,26.97
2022-11-17T20:36:29.159Z,28.73
2022-11-17T20:38:58.236Z,27.73
2022-11-17T20:41:25.836Z,27.13
2022-11-17T20:43:54.857Z,25.20
2022-11-17T20:49:14.202Z,27.20
2022-11-17T20:51:42.150Z,27.87
2022-11-17T20:54:09.923Z,30.80
2022-11-17T20:56:36.888Z,27.47
2022-11-17T20:59:03.955Z,30.20
2022-11-17T21:01:30.803Z,32.87
2022-11-17T21:03:57.736Z,24.80
2022-11-17T21:06:27.987Z,25.80
2022-11-17T21:08:54.785Z,26.57
2022-11-17T21:11:56.922Z,28.87
2022-11-17T21:14:27.939Z,27.30
2022-11-17T21:16:57.616Z,25.10
2022-11-17T21:19:24.632Z,33.40
2022-11-17T21:21:53.360Z,30.27
2022-11-17T21:24:22.414Z,30.67
2022-11-17T21:26:54.504Z,30.17
2022-11-17T21:29:21.659Z,30.13
2022-11-17T21:31:48.723Z,26.40
2022-11-17T21:34:18.251Z,34.33
2022-11-17T21:36:45.542Z,29.67
2022-11-17T21:39:18.897Z,30.83
2022-11-17T21:41:46.036Z,28.57
2022-11-17T21:44:14.317Z,29.37
2022-11-17T21:46:41.565Z,30.37
2022-11-17T21:49:08.404Z,26.40
2022-11-17T21:51:38.808Z,27.50
2022-11-17T21:54:08.191Z,27.00
2022-11-17T21:56:36.205Z,25.70
2022-11-17T21:59:08.573Z,31.57
2022-11-17T22:01:35.806Z,25.30
2022-11-17T22:04:03.339Z,26.17
2022-11-17T22:06:30.690Z,24.13
2022-11-17T22:08:59.221Z,23.23
2022-11-17T22:11:37.485Z,20.63
2022-11-17T22:14:11.798Z,22.30
2022-11-17T22:16:43.910Z,23.97
2022-11-17T22:19:12.220Z,24.17
2022-11-17T22:21:40.529Z,22.20
2022-11-17T22:24:10.503Z,22.93
2022-11-17T22:26:38.714Z,18.90
2022-11-17T22:29:08.052Z,27.20
2022-11-17T22:31:35.116Z,25.17
2022-11-17T22:34:01.969Z,19.33
2022-11-17T22:39:20.216Z,20.20
2022-11-17T22:41:47.208Z,20.73
2022-11-17T22:44:15.828Z,17.50
2022-11-17T22:46:46.021Z,21.63
2022-11-17T22:49:13.844Z,19.07
2022-11-17T22:51:59.257Z,19.37
2022-11-17T22:54:26.039Z,18.00
2022-11-17T22:56:52.942Z,16.50
2022-11-17T22:59:22.174Z,18.10
2022-11-17T23:01:48.992Z,18.97
2022-11-17T23:04:21.018Z,15.87
2022-11-17T23:06:47.756Z,16.97
2022-11-17T23:09:14.715Z,19.10
2022-11-17T23:11:42.022Z,15.80
2022-11-17T23:14:13.702Z,19.80
2022-11-17T23:16:41.098Z,14.50
2022-11-17T23:19:16.784Z,15.87
2022-11-17T23:21:43.830Z,17.90
2022-11-17T23:24:12.751Z,16.80
2022-11-17T23:26:40.308Z,16.97
2022-11-17T23:29:07.874Z,18.60
2022-11-17T23:31:35.104Z,15.90
2022-11-17T23:34:02.068Z,17.07
2022-11-17T23:36:29.091Z,19.07
2022-11-17T23:38:57.684Z,20.87
2022-11-17T23:41:24.632Z,19.67
2022-11-17T23:43:53.084Z,20.70
2022-11-17T23:46:25.700Z,20.90
2022-11-17T23:48:52.830Z,20.20
2022-11-17T23:51:25.365Z,15.90
2022-11-17T23:53:53.125Z,20.53
2022-11-17T23:56:44.969Z,21.13
2022-11-17T23:59:17.732Z,18.67
